DLH6KK EHAM-EDDM
Flight info
| Callsign | DLH6KK |
|---|---|
| Flight time | N/A |
| Altitude | 35000 |
| Route | EDUPO Z739 MISGO DCT DOJOH DCT DODEN DCT TABUM DCT BOMBI T104 ROKIL ROKIL1B |
| Aircraft | A320/M-SDE3FGHIRWY/LB1 |
Departure
| Time | N/A |
|---|---|
| Airport | Amsterdam Airport Schiphol (EHAM) |
Arrival
| Time | 2026-05-07 15:47 |
|---|---|
| Airport | Munich Airport (EDDM) |
| Time | Latitude | Longitude | Altitude | Speed | Heading |
|---|---|---|---|---|---|
| 2026-05-07 15:13 | 49.95497 | 8.94434 | 35123 ft | 460 kts | 139° |
| 2026-05-07 15:14 | 49.90752 | 9.01104 | 34949 ft | 461 kts | 139° |
| 2026-05-07 15:14 | 49.85994 | 9.07780 | 34834 ft | 463 kts | 139° |
| 2026-05-07 15:15 | 49.81217 | 9.14472 | 34913 ft | 464 kts | 138° |
| 2026-05-07 15:15 | 49.76434 | 9.21161 | 34990 ft | 465 kts | 138° |
| 2026-05-07 15:16 | 49.71661 | 9.27813 | 35010 ft | 465 kts | 138° |
| 2026-05-07 15:16 | 49.66846 | 9.34500 | 35012 ft | 465 kts | 139° |
| 2026-05-07 15:17 | 49.62104 | 9.41242 | 35009 ft | 466 kts | 135° |
| 2026-05-07 15:17 | 49.57776 | 9.48557 | 35004 ft | 466 kts | 131° |
| 2026-05-07 15:18 | 49.53488 | 9.56096 | 35010 ft | 466 kts | 131° |
| 2026-05-07 15:18 | 49.49242 | 9.63530 | 34968 ft | 465 kts | 131° |
| 2026-05-07 15:19 | 49.47120 | 9.67237 | 34746 ft | 460 kts | 132° |
| 2026-05-07 15:19 | 49.45012 | 9.70911 | 34254 ft | 459 kts | 132° |
| 2026-05-07 15:19 | 49.42892 | 9.74597 | 33757 ft | 458 kts | 132° |
| 2026-05-07 15:19 | 49.40788 | 9.78252 | 33271 ft | 457 kts | 132° |
| 2026-05-07 15:20 | 49.38705 | 9.81869 | 32734 ft | 457 kts | 132° |
| 2026-05-07 15:20 | 49.36603 | 9.85510 | 32182 ft | 457 kts | 131° |
| 2026-05-07 15:20 | 49.34503 | 9.89135 | 31708 ft | 453 kts | 131° |
| 2026-05-07 15:20 | 49.32442 | 9.92691 | 31233 ft | 449 kts | 131° |
| 2026-05-07 15:21 | 49.30370 | 9.96262 | 30607 ft | 447 kts | 131° |
| 2026-05-07 15:21 | 49.28333 | 9.99766 | 29994 ft | 444 kts | 131° |
| 2026-05-07 15:21 | 49.26291 | 10.03277 | 29407 ft | 440 kts | 131° |
| 2026-05-07 15:21 | 49.24270 | 10.06744 | 28815 ft | 436 kts | 132° |
| 2026-05-07 15:22 | 49.22257 | 10.10191 | 28219 ft | 433 kts | 132° |
| 2026-05-07 15:22 | 49.20256 | 10.13613 | 27629 ft | 429 kts | 132° |
| 2026-05-07 15:22 | 49.18289 | 10.16974 | 27050 ft | 426 kts | 132° |
| 2026-05-07 15:22 | 49.16330 | 10.20322 | 26466 ft | 423 kts | 132° |
| 2026-05-07 15:23 | 49.14373 | 10.23663 | 25884 ft | 420 kts | 132° |
| 2026-05-07 15:23 | 49.12426 | 10.26884 | 25310 ft | 416 kts | 134° |
| 2026-05-07 15:23 | 49.10448 | 10.30059 | 24734 ft | 413 kts | 134° |
| 2026-05-07 15:23 | 49.08456 | 10.33239 | 24155 ft | 410 kts | 134° |
| 2026-05-07 15:24 | 49.06493 | 10.36376 | 23591 ft | 408 kts | 134° |
| 2026-05-07 15:24 | 49.04559 | 10.39472 | 23046 ft | 405 kts | 134° |
| 2026-05-07 15:24 | 49.02631 | 10.42559 | 22528 ft | 401 kts | 134° |
| 2026-05-07 15:24 | 49.00737 | 10.45592 | 22017 ft | 398 kts | 134° |
| 2026-05-07 15:25 | 48.98841 | 10.48622 | 21512 ft | 395 kts | 134° |
| 2026-05-07 15:25 | 48.96946 | 10.51642 | 21002 ft | 391 kts | 134° |
| 2026-05-07 15:25 | 48.95067 | 10.54634 | 20513 ft | 388 kts | 134° |
| 2026-05-07 15:25 | 48.93239 | 10.57544 | 20031 ft | 385 kts | 134° |
| 2026-05-07 15:26 | 48.91397 | 10.60477 | 19554 ft | 382 kts | 134° |
| 2026-05-07 15:26 | 48.89571 | 10.63377 | 19086 ft | 379 kts | 134° |
| 2026-05-07 15:26 | 48.87769 | 10.66239 | 18608 ft | 376 kts | 135° |
| 2026-05-07 15:26 | 48.85968 | 10.69094 | 18124 ft | 373 kts | 135° |
| 2026-05-07 15:27 | 48.84168 | 10.71942 | 17653 ft | 370 kts | 135° |
| 2026-05-07 15:27 | 48.82379 | 10.74768 | 17192 ft | 367 kts | 135° |
| 2026-05-07 15:27 | 48.80639 | 10.77518 | 17004 ft | 366 kts | 135° |
| 2026-05-07 15:27 | 48.78867 | 10.80306 | 16999 ft | 367 kts | 135° |
| 2026-05-07 15:28 | 48.77087 | 10.83100 | 16997 ft | 367 kts | 136° |
| 2026-05-07 15:28 | 48.75305 | 10.85894 | 16990 ft | 367 kts | 136° |
| 2026-05-07 15:28 | 48.73550 | 10.88641 | 16998 ft | 367 kts | 135° |
| 2026-05-07 15:28 | 48.71772 | 10.91420 | 17001 ft | 367 kts | 135° |
| 2026-05-07 15:29 | 48.70003 | 10.94187 | 17006 ft | 367 kts | 135° |
| 2026-05-07 15:29 | 48.68231 | 10.96953 | 17012 ft | 367 kts | 136° |
| 2026-05-07 15:29 | 48.66448 | 10.99731 | 17014 ft | 367 kts | 136° |
| 2026-05-07 15:29 | 48.64679 | 11.02482 | 17015 ft | 367 kts | 136° |
| 2026-05-07 15:30 | 48.62913 | 11.05250 | 17013 ft | 367 kts | 133° |
| 2026-05-07 15:30 | 48.61387 | 11.08357 | 16890 ft | 364 kts | 124° |
| 2026-05-07 15:30 | 48.60065 | 11.11595 | 16429 ft | 363 kts | 122° |
| 2026-05-07 15:30 | 48.58776 | 11.14818 | 15916 ft | 362 kts | 122° |
| 2026-05-07 15:31 | 48.57463 | 11.18033 | 15465 ft | 360 kts | 123° |
| 2026-05-07 15:31 | 48.56129 | 11.21228 | 15027 ft | 357 kts | 123° |
| 2026-05-07 15:31 | 48.54785 | 11.24398 | 14593 ft | 355 kts | 123° |
| 2026-05-07 15:31 | 48.53450 | 11.27522 | 14149 ft | 353 kts | 124° |
| 2026-05-07 15:32 | 48.52124 | 11.30612 | 13713 ft | 350 kts | 124° |
| 2026-05-07 15:32 | 48.50813 | 11.33656 | 13277 ft | 348 kts | 124° |
| 2026-05-07 15:32 | 48.49495 | 11.36712 | 12820 ft | 346 kts | 124° |
| 2026-05-07 15:32 | 48.48187 | 11.39741 | 12367 ft | 344 kts | 124° |
| 2026-05-07 15:33 | 48.46896 | 11.42725 | 11928 ft | 341 kts | 124° |
| 2026-05-07 15:33 | 48.45606 | 11.45706 | 11486 ft | 339 kts | 124° |
| 2026-05-07 15:33 | 48.44330 | 11.48671 | 11028 ft | 337 kts | 122° |
| 2026-05-07 15:33 | 48.43412 | 11.51849 | 10723 ft | 332 kts | 105° |
| 2026-05-07 15:34 | 48.43105 | 11.55239 | 10455 ft | 324 kts | 89° |
| 2026-05-07 15:34 | 48.43282 | 11.58591 | 10210 ft | 316 kts | 82° |
| 2026-05-07 15:34 | 48.43565 | 11.61832 | 10022 ft | 307 kts | 81° |
| 2026-05-07 15:34 | 48.43847 | 11.64971 | 10007 ft | 306 kts | 81° |
| 2026-05-07 15:35 | 48.44120 | 11.68145 | 10000 ft | 306 kts | 82° |
| 2026-05-07 15:35 | 48.44385 | 11.71354 | 10008 ft | 306 kts | 83° |
| 2026-05-07 15:35 | 48.44635 | 11.74471 | 9819 ft | 302 kts | 83° |
| 2026-05-07 15:35 | 48.44884 | 11.77640 | 9380 ft | 303 kts | 83° |
| 2026-05-07 15:36 | 48.45122 | 11.80736 | 8997 ft | 302 kts | 83° |
| 2026-05-07 15:36 | 48.45364 | 11.83892 | 8631 ft | 300 kts | 83° |
| 2026-05-07 15:36 | 48.45600 | 11.86980 | 8283 ft | 298 kts | 83° |
| 2026-05-07 15:36 | 48.45834 | 11.90070 | 7942 ft | 296 kts | 83° |
| 2026-05-07 15:37 | 48.46065 | 11.93125 | 7583 ft | 294 kts | 83° |
| 2026-05-07 15:37 | 48.46295 | 11.96189 | 7248 ft | 291 kts | 83° |
| 2026-05-07 15:37 | 48.46522 | 11.99213 | 6903 ft | 289 kts | 83° |
| 2026-05-07 15:37 | 48.46744 | 12.02179 | 6565 ft | 287 kts | 83° |
| 2026-05-07 15:38 | 48.46965 | 12.05156 | 6223 ft | 285 kts | 83° |
| 2026-05-07 15:38 | 48.47185 | 12.08114 | 5890 ft | 283 kts | 83° |
| 2026-05-07 15:38 | 48.47402 | 12.11044 | 5545 ft | 281 kts | 83° |
| 2026-05-07 15:38 | 48.47614 | 12.13925 | 5218 ft | 279 kts | 82° |
| 2026-05-07 15:39 | 48.47826 | 12.16811 | 4985 ft | 275 kts | 82° |
| 2026-05-07 15:39 | 48.48012 | 12.19672 | 4963 ft | 270 kts | 88° |
| 2026-05-07 15:39 | 48.47649 | 12.22346 | 4952 ft | 255 kts | 118° |
| 2026-05-07 15:39 | 48.46538 | 12.24268 | 4961 ft | 245 kts | 149° |
| 2026-05-07 15:40 | 48.44960 | 12.25177 | 4975 ft | 242 kts | 169° |
| 2026-05-07 15:40 | 48.43298 | 12.25637 | 4974 ft | 241 kts | 173° |
| 2026-05-07 15:40 | 48.41647 | 12.26010 | 4973 ft | 241 kts | 175° |
| 2026-05-07 15:40 | 48.39991 | 12.25929 | 4960 ft | 235 kts | 201° |
| 2026-05-07 15:41 | 48.38657 | 12.24653 | 4967 ft | 229 kts | 232° |
| 2026-05-07 15:41 | 48.37841 | 12.22602 | 4977 ft | 227 kts | 251° |
| 2026-05-07 15:41 | 48.37440 | 12.20325 | 4754 ft | 225 kts | 263° |
| 2026-05-07 15:41 | 48.37302 | 12.17982 | 4504 ft | 224 kts | 267° |
| 2026-05-07 15:42 | 48.37204 | 12.15655 | 4258 ft | 224 kts | 266° |
| 2026-05-07 15:42 | 48.37076 | 12.13327 | 4029 ft | 222 kts | 265° |
| 2026-05-07 15:42 | 48.36918 | 12.11018 | 3988 ft | 223 kts | 265° |
| 2026-05-07 15:42 | 48.36743 | 12.08747 | 3978 ft | 214 kts | 264° |
| 2026-05-07 15:43 | 48.36568 | 12.06598 | 3973 ft | 200 kts | 264° |
| 2026-05-07 15:43 | 48.36399 | 12.04558 | 3990 ft | 192 kts | 265° |
| 2026-05-07 15:43 | 48.36242 | 12.02661 | 4036 ft | 175 kts | 264° |
| 2026-05-07 15:43 | 48.36095 | 12.00863 | 4002 ft | 171 kts | 265° |
| 2026-05-07 15:44 | 48.35952 | 11.99103 | 3893 ft | 171 kts | 265° |
| 2026-05-07 15:44 | 48.35809 | 11.97331 | 3671 ft | 170 kts | 265° |
| 2026-05-07 15:44 | 48.35669 | 11.95585 | 3438 ft | 165 kts | 265° |
| 2026-05-07 15:44 | 48.35535 | 11.93921 | 3216 ft | 160 kts | 265° |
| 2026-05-07 15:45 | 48.35407 | 11.92303 | 2988 ft | 149 kts | 265° |
| 2026-05-07 15:45 | 48.35290 | 11.90762 | 2803 ft | 145 kts | 266° |
| 2026-05-07 15:45 | 48.35188 | 11.89285 | 2643 ft | 143 kts | 266° |
| 2026-05-07 15:45 | 48.35057 | 11.87770 | 2464 ft | 144 kts | 265° |
| 2026-05-07 15:46 | 48.34806 | 11.84752 | 2086 ft | 146 kts | 266° |
| 2026-05-07 15:46 | 48.34687 | 11.83198 | 1865 ft | 148 kts | 266° |
| 2026-05-07 15:46 | 48.34572 | 11.81682 | 1659 ft | 149 kts | 265° |
| 2026-05-07 15:47 | 48.34452 | 11.80152 | 1486 ft | 145 kts | 266° |
| 2026-05-07 15:47 | 48.34348 | 11.78766 | 1479 ft | 113 kts | 264° |
| 2026-05-07 15:47 | 48.34278 | 11.77848 | 1483 ft | 69 kts | 264° |
| 2026-05-07 15:47 | 48.34253 | 11.77325 | 1484 ft | 30 kts | 279° |
| 2026-05-07 15:48 | 48.34322 | 11.77039 | 1485 ft | 28 kts | 294° |
| 2026-05-07 15:48 | 48.34380 | 11.76838 | 1485 ft | 13 kts | 294° |
| 2026-05-07 15:48 | 48.34431 | 11.76714 | 1485 ft | 14 kts | 333° |
| 2026-05-07 15:48 | 48.34533 | 11.76691 | 1484 ft | 15 kts | 354° |
| 2026-05-07 15:49 | 48.34578 | 11.76808 | 1484 ft | 16 kts | 83° |
| 2026-05-07 15:49 | 48.34594 | 11.77007 | 1483 ft | 21 kts | 83° |
| 2026-05-07 15:49 | 48.34613 | 11.77248 | 1483 ft | 25 kts | 83° |
| 2026-05-07 15:49 | 48.34634 | 11.77519 | 1482 ft | 25 kts | 83° |
| 2026-05-07 15:50 | 48.34654 | 11.77784 | 1481 ft | 25 kts | 83° |
| 2026-05-07 15:50 | 48.34675 | 11.78063 | 1481 ft | 27 kts | 83° |
| 2026-05-07 15:50 | 48.34697 | 11.78357 | 1480 ft | 28 kts | 83° |
| 2026-05-07 15:50 | 48.34721 | 11.78654 | 1479 ft | 27 kts | 83° |
| 2026-05-07 15:51 | 48.34743 | 11.78942 | 1478 ft | 27 kts | 84° |
| 2026-05-07 15:51 | 48.34764 | 11.79228 | 1476 ft | 26 kts | 83° |
| 2026-05-07 15:51 | 48.34786 | 11.79480 | 1475 ft | 14 kts | 84° |
| 2026-05-07 15:51 | 48.34837 | 11.79562 | 1475 ft | 12 kts | 355° |
| 2026-05-07 15:52 | 48.34904 | 11.79548 | 1475 ft | 0 kts | 354° |
| 2026-05-07 15:52 | 48.34915 | 11.79547 | 1475 ft | 4 kts | 355° |
| 2026-05-07 15:53 | 48.34965 | 11.79539 | 1474 ft | 9 kts | 353° |
| 2026-05-07 15:53 | 48.35039 | 11.79526 | 1474 ft | 11 kts | 354° |
| 2026-05-07 15:53 | 48.35070 | 11.79443 | 1475 ft | 11 kts | 264° |
| 2026-05-07 15:53 | 48.35064 | 11.79380 | 1475 ft | 3 kts | 263° |
| 2026-05-07 15:54 | 48.35063 | 11.79367 | 1475 ft | 0 kts | 263° |